Latest Coastal Weather Observations for Noarlunga

IDS60701

Issued at 10:51 am CST Thursday 30 June 2016 (issued every 10 minutes, with the page automatically refreshed every 10 minutes)

About coastal observations | Map of coastal stations | Coastal observations for SA | Marine services | Other Formats
Station Details ID: 023885 Name: NOARLUNGA Lat: -35.16 Lon: 138.51 Height: 55.0 m
Data from the previous 72 hours. | See also: Recent months at Noarlunga
Date/Time
CST
Temp
°C
Wind Pressure Rain since
9am
mm
Weather Cloud Vis
km
Sea
Height
m
Swell
Dir  Spd
kts
Gust
kts
hPa Trend Height
m
Period
s
Dir
30/10:30am 13.1 WNW 12 20 - - 1.0 - - - - - - -
30/10:16am 12.8 NW 15 25 - - 1.0 - - - - - - -
30/10:00am 12.6 NW 15 24 - - 1.0 - - - - - - -
30/09:30am 12.4 NW 14 26 - - 1.0 - - - - - - -
30/09:26am 12.4 NW 15 26 - - 1.0 - - - - - - -
30/09:00am 13.0 NW 15 23 - - 2.0 - - - - - - -
30/08:33am 12.9 NNW 15 25 - - 2.0 - - - - - - -
30/08:30am 12.9 NNW 16 25 - - 2.0 - - - - - - -
30/08:00am 12.7 NNW 15 21 - - 2.0 - - - - - - -
30/07:30am 12.4 NNW 14 21 - - 1.8 - - - - - - -
30/07:17am 12.2 NNW 15 25 - - 1.8 - - - - - - -
30/07:00am 11.8 NNW 13 20 - - 1.6 - - - - - - -
30/06:30am 12.3 NNW 14 23 - - 0.8 - - - - - - -
30/06:00am 12.4 NNW 17 25 - - 0.6 - - - - - - -
30/05:30am 12.2 N 17 27 - - 0.6 - - - - - - -
30/05:14am 12.1 NNW 17 28 - - 0.6 - - - - - - -
30/05:00am 11.9 NNW 17 27 - - 0.6 - - - - - - -
30/04:43am 11.8 N 15 26 - - 0.6 - - - - - - -
30/04:30am 10.8 N 15 22 - - 0.6 - - - - - - -
30/04:00am 10.9 N 15 22 - - 0.6 - - - - - - -
30/03:30am 10.4 N 13 20 - - 0.6 - - - - - - -
30/03:00am 10.2 N 12 16 - - 0.6 Recent precip. - - - - - -
30/02:30am 10.6 N 12 18 - - 0.4 - - - - - - -
30/02:00am 10.7 N 14 19 - - 0.2 - - - - - - -
30/01:30am 11.3 N 17 23 - - 0.0 - - - - - - -
30/01:00am 11.4 N 18 28 - - 0.0 - - - - - - -
30/12:53am 11.6 N 18 29 - - 0.0 - - - - - - -
30/12:30am 11.7 N 18 27 - - 0.0 - - - - - - -
30/12:05am 11.9 N 21 31 - - 0.0 - - - - - - -
30/12:00am 11.9 N 21 30 - - 0.0 - - - - - - -
 
Date/Time
CST
Temp
°C
Wind Pressure Rain since
9am
mm
Weather Cloud Vis
km
Sea
Height
m
Swell
Dir  Spd
kts
Gust
kts
hPa Trend Height
m
Period
s
Dir
29/11:39pm 11.7 N 19 31 - - 0.0 - - - - - - -
29/11:30pm 11.6 N 19 28 - - 0.0 - - - - - - -
29/11:02pm 11.6 N 18 28 - - 0.0 - - - - - - -
29/11:00pm 11.6 N 18 28 - - 0.0 - - - - - - -
29/10:36pm 11.5 N 18 29 - - 0.0 - - - - - - -
29/10:30pm 11.4 N 18 25 - - 0.0 - - - - - - -
29/10:14pm 11.3 N 19 30 - - 0.0 - - - - - - -
29/10:00pm 11.3 N 18 27 - - 0.0 - - - - - - -
29/09:41pm 11.3 N 19 29 - - 0.0 - - - - - - -
29/09:30pm 11.3 N 19 26 - - 0.0 - - - - - - -
29/09:00pm 11.4 N 19 26 - - 0.0 - - - - - - -
29/08:36pm 11.3 N 16 26 - - 0.0 - - - - - - -
29/08:30pm 11.3 N 17 26 - - 0.0 - - - - - - -
29/08:29pm 11.4 N 16 26 - - 0.0 - - - - - - -
29/08:00pm 11.4 N 15 23 - - 0.0 - - - - - - -
29/07:30pm 11.7 N 17 23 - - 0.0 - - - - - - -
29/07:00pm 11.7 N 16 23 - - 0.0 - - - - - - -
29/06:44pm 11.6 N 15 26 - - 0.0 - - - - - - -
29/06:30pm 11.5 N 15 22 - - 0.0 - - - - - - -
29/06:00pm 11.5 N 14 20 - - 0.0 - - - - - - -
29/05:34pm 11.9 N 16 26 - - 0.0 - - - - - - -
29/05:30pm 11.9 N 16 23 - - 0.0 - - - - - - -
29/05:01pm 12.0 N 19 29 - - 0.0 - - - - - - -
29/05:00pm 12.0 N 20 30 - - 0.0 - - - - - - -
29/04:30pm 12.3 N 22 34 - - 0.0 - - - - - - -
29/04:00pm 12.5 N 20 33 - - 0.0 - - - - - - -
29/03:32pm 12.2 N 19 29 - - 0.0 - - - - - - -
29/03:30pm 12.1 N 20 29 - - 0.0 - - - - - - -
29/03:00pm 12.1 N 21 33 - - 0.0 - - - - - - -
29/02:31pm 12.2 N 22 32 - - 0.0 - - - - - - -
29/02:30pm 12.3 N 22 32 - - 0.0 - - - - - - -
29/02:00pm 12.1 N 18 28 - - 0.0 - - - - - - -
29/01:43pm 12.2 N 15 26 - - 0.0 - - - - - - -
29/01:30pm 12.1 N 14 22 - - 0.0 - - - - - - -
29/01:00pm 11.8 N 16 22 - - 0.0 - - - - - - -
29/12:43pm 11.6 N 16 26 - - 0.0 - - - - - - -
29/12:30pm 11.5 N 13 19 - - 0.0 - - - - - - -
29/12:00pm 11.4 N 14 21 - - 0.0 - - - - - - -
29/11:30am 11.4 N 14 21 - - 0.0 - - - - - - -
29/11:00am 11.3 N 13 20 - - 0.0 - - - - - - -
29/10:30am 11.4 N 15 19 - - 0.0 - - - - - - -
29/10:00am 11.2 N 12 20 - - 0.0 - - - - - - -
29/09:30am 11.1 N 12 18 - - 0.0 - - - - - - -
29/09:00am 10.9 N 11 17 - - 0.0 - - - - - - -
29/08:30am 10.6 N 10 14 - - 0.0 - - - - - - -
29/08:00am 10.5 N 10 14 - - 0.0 - - - - - - -
29/07:30am 10.4 N 10 15 - - 0.0 - - - - - - -
29/07:00am 10.3 N 8 11 - - 0.0 - - - - - - -
29/06:30am 10.3 NNE 9 15 - - 0.0 - - - - - - -
29/06:00am 10.3 NNE 9 13 - - 0.0 - - - - - - -
29/05:30am 10.2 NNE 9 13 - - 0.0 - - - - - - -
29/05:00am 10.0 NNE 8 12 - - 0.0 - - - - - - -
29/04:30am 10.2 NNE 9 13 - - 0.0 - - - - - - -
29/04:00am 10.4 N 8 16 - - 0.0 - - - - - - -
29/03:30am 10.0 NNE 8 13 - - 0.0 - - - - - - -
29/03:00am 9.8 NNE 8 11 - - 0.0 - - - - - - -
29/02:30am 9.8 NNE 8 10 - - 0.0 - - - - - - -
29/02:00am 9.3 NNE 5 7 - - 0.0 - - - - - - -
29/01:30am 9.6 NNE 6 7 - - 0.0 - - - - - - -
29/01:00am 10.1 N 7 9 - - 0.0 - - - - - - -
29/12:30am 9.3 NE 6 8 - - 0.0 - - - - - - -
29/12:00am 9.6 NE 5 7 - - 0.0 - - - - - - -
 
Date/Time
CST
Temp
°C
Wind Pressure Rain since
9am
mm
Weather Cloud Vis
km
Sea
Height
m
Swell
Dir  Spd
kts
Gust
kts
hPa Trend Height
m
Period
s
Dir
28/11:30pm 9.9 NNE 6 7 - - 0.0 - - - - - - -
28/11:00pm 10.2 NNE 6 9 - - 0.0 - - - - - - -
28/10:30pm 10.5 NNE 7 10 - - 0.0 - - - - - - -
28/10:00pm 10.1 NNE 6 8 - - 0.0 - - - - - - -
28/09:30pm 10.1 NNE 6 9 - - 0.0 - - - - - - -
28/09:00pm 10.1 NNE 5 7 - - 0.0 - - - - - - -
28/08:30pm 10.3 NNE 5 6 - - 0.0 - - - - - - -
28/08:00pm 10.7 NNE 5 7 - - 0.0 - - - - - - -
28/07:30pm 10.9 NE 6 8 - - 0.0 - - - - - - -
28/07:00pm 11.4 N 5 7 - - 0.0 - - - - - - -
28/06:30pm 11.9 N 5 8 - - 0.0 - - - - - - -
28/06:00pm 12.1 N 6 8 - - 0.0 - - - - - - -
28/05:30pm 12.4 N 7 9 - - 0.0 - - - - - - -
28/05:00pm 13.0 N 7 11 - - 0.0 - - - - - - -
28/04:30pm 13.7 N 9 13 - - 0.0 - - - - - - -
28/04:00pm 13.9 N 11 16 - - 0.0 - - - - - - -
28/03:30pm 14.3 N 10 15 - - 0.0 - - - - - - -
28/03:00pm 14.5 NNW 11 15 - - 0.0 - - - - - - -
28/02:30pm 14.5 N 10 15 - - 0.0 - - - - - - -
28/02:00pm 14.3 NNW 12 16 - - 0.0 - - - - - - -
28/01:30pm 14.4 NNW 12 18 - - 0.0 - - - - - - -
28/01:00pm 13.3 NNW 11 17 - - 0.0 - - - - - - -
28/12:30pm 13.6 N 12 17 - - 0.0 - - - - - - -
28/12:00pm 13.3 N 13 18 - - 0.0 - - - - - - -
28/11:30am 13.1 N 13 17 - - 0.0 - - - - - - -
28/11:00am 12.7 N 11 15 - - 0.0 - - - - - - -
28/10:30am 12.1 N 8 15 - - 0.0 - - - - - - -
28/10:00am 11.3 N 10 15 - - 0.0 - - - - - - -
28/09:30am 11.4 N 9 12 - - 0.0 - - - - - - -
28/09:00am 10.9 N 9 14 - - 0.0 - - - - - - -
28/08:30am 10.7 NNE 9 12 - - 0.0 - - - - - - -
28/08:00am 10.6 N 7 11 - - 0.0 - - - - - - -
28/07:30am 10.4 N 9 13 - - 0.0 - - - - - - -
28/07:00am 10.3 N 9 13 - - 0.0 - - - - - - -
28/06:30am 10.0 N 9 13 - - 0.0 - - - - - - -
28/06:00am 10.1 NNE 8 12 - - 0.0 - - - - - - -
28/05:30am 10.1 NNE 9 13 - - 0.0 - - - - - - -
28/05:00am 10.2 NNE 10 14 - - 0.0 - - - - - - -
28/04:30am 10.4 N 10 14 - - 0.0 - - - - - - -
28/04:00am 10.7 N 10 13 - - 0.0 - - - - - - -
28/03:30am 10.7 N 9 12 - - 0.0 - - - - - - -
28/03:00am 10.8 NNE 9 12 - - 0.0 - - - - - - -
28/02:30am 11.0 N 8 12 - - 0.0 - - - - - - -
28/02:00am 11.3 NNE 9 13 - - 0.0 - - - - - - -
28/01:30am 11.0 NNE 8 11 - - 0.0 - - - - - - -
28/01:00am 11.1 N 7 11 - - 0.0 - - - - - - -
28/12:30am 10.6 NNE 6 7 - - 0.0 - - - - - - -
28/12:00am 10.5 NNE 6 8 - - 0.0 - - - - - - -
 
Date/Time
CST
Temp
°C
Wind Pressure Rain since
9am
mm
Weather Cloud Vis
km
Sea
Height
m
Swell
Dir  Spd
kts
Gust
kts
hPa Trend Height
m
Period
s
Dir
27/11:30pm 12.3 NNW 6 9 - - 0.0 - - - - - - -
27/11:00pm 12.5 NNW 7 11 - - 0.0 - - - - - - -
27/10:30pm 12.4 NNW 6 8 - - 0.0 - - - - - - -
27/10:00pm 11.8 NNW 5 8 - - 0.0 - - - - - - -
27/09:30pm 10.6 NNW 3 6 - - 0.0 - - - - - - -
27/09:00pm 10.3 N 3 4 - - 0.0 - - - - - - -
27/08:30pm 10.5 N 3 4 - - 0.0 - - - - - - -
27/08:00pm 10.7 NW 2 4 - - 0.0 - - - - - - -
27/07:30pm 11.2 NNE 6 9 - - 0.0 - - - - - - -
27/07:00pm 11.4 NNE 6 8 - - 0.0 - - - - - - -
27/06:30pm 11.3 N 6 8 - - 0.0 - - - - - - -
27/06:00pm 11.4 N 5 6 - - 0.0 - - - - - - -
27/05:30pm 11.7 N 5 7 - - 0.0 - - - - - - -
27/05:00pm 12.8 NNW 5 7 - - 0.0 - - - - - - -
27/04:30pm 13.7 NW 5 8 - - 0.0 - - - - - - -
27/04:00pm 14.2 NW 5 7 - - 0.0 - - - - - - -
27/03:30pm 14.5 WNW 6 8 - - 0.0 - - - - - - -
27/03:00pm 14.4 NW 6 9 - - 0.0 - - - - - - -
27/02:30pm 14.6 WNW 6 10 - - 0.0 - - - - - - -
27/02:00pm 14.6 WNW 5 9 - - 0.0 - - - - - - -
27/01:30pm 14.7 W 5 7 - - 0.0 - - - - - - -
27/01:00pm 14.7 WNW 4 8 - - 0.0 - - - - - - -
27/12:30pm 14.2 W 5 8 - - 0.0 - - - - - - -
27/12:00pm 14.0 WNW 5 8 - - 0.0 - - - - - - -
27/11:30am 13.7 W 5 7 - - 0.0 - - - - - - -
27/11:00am 13.9 W 2 4 - - 0.0 - - - - - - -

Other Formats:

Comma delimited format used in spreadsheet applications
http://www.bom.gov.au/fwo/IDS60701/IDS60701.94808.axf

JavaScript Object Notation format (JSON) in row-major order
http://www.bom.gov.au/fwo/IDS60701/IDS60701.94808.json